Latest Weather Observations for Hobart

IDT60901

Issued at 9:11 am EST Tuesday 24 May 2022 (issued every 10 minutes, with the page automatically refreshed every 10 minutes)

About weather observations | Map of Hobart area stations | Latest observations for Hobart area | Other Formats
Station Details ID: 094029 Name: HOBART (ELLERSLIE ROAD) Lat: -42.89 Lon: 147.33 Height: 50.5 m
Data from the previous 72 hours. | See also: Recent months at Hobart
Date/Time
EST
Temp
°C
App
Temp
°C
Dew
Point
°C
Rel
Hum
%
Delta-T
°C
Wind Press
QNH
hPa
Press
MSL
hPa
Rain since
9am
mm
Dir  Spd
km/h
Gust
km/h
Spd
kts
Gust
kts
24/09:00am 7.5 2.8 5.0 84 1.1 NNW 19 24 10 13 1031.4 1031.4 0.0
24/08:30am 7.2 2.8 5.0 86 1.0 NNW 17 20 9 11 1031.3 1031.3 0.0
24/08:00am 6.8 3.2 4.8 87 0.9 NNW 13 19 7 10 1031.2 1031.2 0.0
24/07:30am 7.0 3.0 5.0 87 0.9 NNW 15 19 8 10 1031.0 1031.0 0.0
24/07:00am 7.1 4.3 5.1 87 0.9 NNW 9 13 5 7 1030.9 1030.9 0.0
24/06:30am 7.3 3.8 5.3 87 0.9 NNW 13 17 7 9 1030.5 1030.6 0.0
24/06:00am 7.5 4.0 5.3 86 1.0 NNW 13 17 7 9 1030.3 1030.4 0.0
24/05:30am 7.5 3.6 5.5 87 0.9 NNW 15 19 8 10 1030.3 1030.4 0.0
24/05:00am 7.5 4.8 5.8 89 0.8 NNW 9 13 5 7 1030.2 1030.3 0.0
24/04:30am 7.1 4.3 5.3 88 0.8 NW 9 13 5 7 1030.1 1030.2 0.0
24/04:00am 7.2 4.4 5.3 88 0.8 NW 9 15 5 8 1030.1 1030.2 0.0
24/03:30am 7.3 4.6 5.8 90 0.7 NW 9 13 5 7 1030.3 1030.4 0.0
24/03:00am 6.9 3.8 5.4 90 0.7 NW 11 15 6 8 1030.4 1030.5 0.0
24/02:30am 7.1 4.0 5.4 89 0.8 NW 11 15 6 8 1030.7 1030.7 0.0
24/02:00am 7.4 3.9 5.5 88 0.8 NNW 13 19 7 10 1030.7 1030.7 0.0
24/01:30am 7.4 3.9 5.5 88 0.8 NNW 13 15 7 8 1030.7 1030.7 0.0
24/01:00am 7.6 3.8 5.7 88 0.8 NNW 15 17 8 9 1030.8 1030.8 0.0
24/12:30am 7.3 4.6 5.8 90 0.7 NNW 9 11 5 6 1031.0 1031.0 0.0
24/12:00am 7.3 5.3 6.1 92 0.5 WNW 6 11 3 6 1031.0 1031.0 0.0
 
Date/Time
EST
Temp
°C
App
Temp
°C
Dew
Point
°C
Rel
Hum
%
Delta-T
°C
Wind Press
QNH
hPa
Press
MSL
hPa
Rain since
9am
mm
Dir  Spd
km/h
Gust
km/h
Spd
kts
Gust
kts
23/11:30pm 7.2 5.0 6.1 93 0.5 NW 7 9 4 5 1031.0 1031.0 0.0
23/11:00pm 7.0 3.9 5.6 91 0.6 NW 11 13 6 7 1031.0 1031.0 0.0
23/10:30pm 7.0 4.9 5.6 91 0.6 NNW 6 9 3 5 1031.1 1031.1 0.0
23/10:00pm 7.2 4.9 5.8 91 0.6 NW 7 9 4 5 1031.1 1031.1 0.0
23/09:30pm 7.6 5.4 6.1 90 0.7 NNW 7 9 4 5 1031.1 1031.1 0.0
23/09:00pm 7.6 5.5 5.9 89 0.8 WNW 6 7 3 4 1030.9 1030.9 0.0
23/08:30pm 8.1 7.2 6.2 88 0.9 CALM 0 0 0 0 1030.7 1030.7 0.0
23/08:00pm 8.4 6.4 6.4 87 0.9 NW 6 7 3 4 1030.5 1030.6 0.0
23/07:30pm 8.8 7.6 6.4 85 1.1 WNW 2 7 1 4 1030.3 1030.4 0.0
23/07:00pm 9.2 7.3 6.6 84 1.2 WNW 6 7 3 4 1030.1 1030.2 0.0
23/06:30pm 9.7 7.2 6.4 80 1.5 W 9 11 5 6 1030.0 1030.1 0.0
23/06:00pm 10.4 7.6 6.9 79 1.6 WSW 11 15 6 8 1029.9 1030.0 0.0
23/05:30pm 10.3 7.1 7.0 80 1.6 WSW 13 17 7 9 1029.8 1029.9 0.0
23/05:00pm 11.0 9.9 7.1 77 1.8 SW 2 9 1 5 1029.6 1029.7 0.0
23/04:30pm 11.9 9.9 7.2 73 2.3 WSW 7 9 4 5 1029.6 1029.7 0.0
23/04:00pm 13.1 11.0 6.5 64 3.1 N 7 9 4 5 1029.5 1029.6 0.0
23/03:30pm 14.7 12.2 6.5 58 4.0 NNW 9 13 5 7 1029.5 1029.6 0.0
23/03:00pm 15.0 12.4 6.3 56 4.2 NNW 9 11 5 6 1029.5 1029.6 0.0
23/02:30pm 14.7 11.4 6.3 57 4.1 NNW 13 17 7 9 1029.7 1029.8 0.0
23/02:00pm 14.5 11.1 5.8 56 4.1 NNW 13 17 7 9 1029.8 1029.9 0.0
23/01:30pm 14.0 10.3 6.1 59 3.8 NNW 15 19 8 10 1030.0 1030.1 0.0
23/01:00pm 12.7 7.9 5.8 63 3.2 NNW 20 28 11 15 1030.2 1030.3 0.0
23/12:30pm 12.3 7.5 5.7 64 3.1 NNW 20 24 11 13 1030.7 1030.7 0.0
23/12:00pm 12.5 9.1 5.9 64 3.1 NNW 13 17 7 9 1031.1 1031.1 0.0
23/11:30am 11.6 7.4 5.9 68 2.7 NNW 17 20 9 11 1031.5 1031.5 0.0
23/11:00am 10.5 5.8 5.3 70 2.4 NNW 19 26 10 14 1031.8 1031.8 0.0
23/10:30am 9.8 4.9 5.2 73 2.1 NNW 20 26 11 14 1032.0 1032.0 0.0
23/10:00am 9.1 4.4 5.3 77 1.7 NNW 19 26 10 14 1031.9 1031.9 0.0
23/09:30am 7.8 2.8 4.7 81 1.4 NNW 20 28 11 15 1032.0 1032.0 0.0
23/09:00am 7.1 3.1 4.9 86 1.0 NNW 15 20 8 11 1032.0 1032.0 0.0
23/08:30am 6.5 2.1 4.7 88 0.8 NNW 17 22 9 12 1032.0 1032.0 0.0
23/08:00am 6.2 2.1 4.5 89 0.7 NNW 15 20 8 11 1031.9 1031.9 0.0
23/07:30am 6.6 2.5 4.6 87 0.9 NNW 15 20 8 11 1031.8 1031.8 0.0
23/07:00am 7.1 3.5 4.9 86 1.0 NNW 13 19 7 10 1031.4 1031.4 0.0
23/06:30am 7.5 3.1 5.0 84 1.1 NW 17 24 9 13 1031.3 1031.3 0.0
23/06:00am 7.8 3.9 5.3 84 1.1 NNW 15 19 8 10 1031.1 1031.1 0.0
23/05:30am 8.2 4.3 5.3 82 1.3 NNW 15 19 8 10 1030.9 1030.9 0.0
23/05:00am 8.3 4.5 5.6 83 1.2 NW 15 20 8 11 1030.9 1030.9 0.0
23/04:30am 8.2 3.5 5.3 82 1.3 NNW 19 22 10 12 1030.8 1030.8 0.0
23/04:00am 8.5 3.9 5.6 82 1.3 NNW 19 22 10 12 1030.9 1030.9 0.0
23/03:30am 8.7 5.2 5.6 81 1.4 NNW 13 19 7 10 1030.9 1030.9 0.0
23/03:00am 8.9 4.7 5.6 80 1.5 NNW 17 24 9 13 1031.1 1031.1 0.0
23/02:30am 9.0 5.2 5.9 81 1.4 NW 15 20 8 11 1031.1 1031.1 0.0
23/02:00am 9.0 4.2 5.7 80 1.5 NNW 20 28 11 15 1031.0 1031.0 0.0
23/01:30am 9.2 5.0 5.9 80 1.5 NNW 17 20 9 11 1031.1 1031.1 0.0
23/01:00am 9.3 5.9 6.0 80 1.5 NW 13 19 7 10 1031.2 1031.2 0.0
23/12:30am 9.2 5.8 6.1 81 1.4 NW 13 17 7 9 1031.2 1031.2 0.0
23/12:00am 9.2 5.8 6.1 81 1.4 NW 13 17 7 9 1031.3 1031.3 0.0
 
Date/Time
EST
Temp
°C
App
Temp
°C
Dew
Point
°C
Rel
Hum
%
Delta-T
°C
Wind Press
QNH
hPa
Press
MSL
hPa
Rain since
9am
mm
Dir  Spd
km/h
Gust
km/h
Spd
kts
Gust
kts
22/11:30pm 9.0 6.0 6.1 82 1.3 NW 11 20 6 11 1031.4 1031.4 0.0
22/11:00pm 9.1 5.8 6.4 83 1.2 NW 13 17 7 9 1031.4 1031.4 0.0
22/10:30pm 8.9 6.8 6.5 85 1.1 WNW 7 9 4 5 1031.5 1031.5 0.0
22/10:00pm 9.1 6.6 6.5 84 1.2 WNW 9 11 5 6 1031.4 1031.4 0.0
22/09:30pm 9.0 6.8 6.4 84 1.2 W 7 9 4 5 1031.3 1031.3 0.0
22/09:00pm 9.2 6.6 6.1 81 1.4 NW 9 13 5 7 1031.3 1031.3 0.0
22/08:30pm 9.3 7.1 6.4 82 1.3 WNW 7 9 4 5 1031.2 1031.2 0.0
22/08:00pm 9.1 6.9 6.2 82 1.3 WNW 7 11 4 6 1031.1 1031.1 0.0
22/07:30pm 9.0 6.9 6.6 85 1.1 W 7 11 4 6 1031.2 1031.2 0.0
22/07:00pm 9.3 6.7 6.0 80 1.5 NW 9 13 5 7 1031.0 1031.0 0.0
22/06:30pm 9.6 7.7 6.5 81 1.4 WNW 6 7 3 4 1030.9 1030.9 0.0
22/06:00pm 9.8 7.9 6.5 80 1.5 W 6 7 3 4 1030.8 1030.8 0.0
22/05:30pm 10.3 8.4 6.6 78 1.7 W 6 7 3 4 1030.9 1030.9 0.0
22/05:00pm 10.6 8.8 5.6 71 2.3 NW 4 6 2 3 1030.9 1030.9 0.0
22/04:30pm 11.0 7.9 5.5 69 2.5 NNW 11 15 6 8 1031.0 1031.0 0.0
22/04:00pm 11.5 8.8 5.6 67 2.7 NNW 9 13 5 7 1030.8 1030.8 0.0
22/03:30pm 11.4 8.3 5.5 67 2.7 NW 11 17 6 9 1030.8 1030.8 0.0
22/03:00pm 11.2 7.2 4.9 65 2.8 NNW 15 22 8 12 1031.0 1031.0 0.0
22/02:30pm 11.3 6.9 4.7 64 3.0 NNW 17 20 9 11 1031.0 1031.0 0.0
22/02:00pm 11.3 7.3 4.7 64 3.0 NNW 15 20 8 11 1031.1 1031.1 0.0
22/01:30pm 11.1 7.0 4.6 64 2.9 NNW 15 22 8 12 1031.3 1031.3 0.0
22/01:00pm 10.9 7.2 4.4 64 2.9 NNW 13 20 7 11 1031.5 1031.5 0.0
22/12:30pm 10.4 6.3 4.3 66 2.7 NNW 15 19 8 10 1032.0 1032.0 0.0
22/12:00pm 10.0 6.3 4.2 67 2.5 NNW 13 24 7 13 1032.4 1032.4 0.0
22/11:30am 9.8 6.4 4.2 68 2.5 NNW 11 19 6 10 1032.8 1032.8 0.0
22/11:00am 9.1 5.0 4.3 72 2.1 NNW 15 22 8 12 1033.0 1033.0 0.0
22/10:30am 8.7 5.0 4.3 74 1.9 NNW 13 19 7 10 1033.1 1033.1 0.0
22/10:00am 7.8 4.1 4.2 78 1.6 NNW 13 17 7 9 1033.0 1033.0 0.0
22/09:30am 7.4 2.5 4.2 80 1.4 NNW 19 28 10 15 1033.0 1033.0 0.0
22/09:00am 6.7 2.2 4.0 83 1.1 NW 17 22 9 12 1032.9 1032.9 0.0
22/08:30am 5.8 -0.2 3.5 85 1.0 NNW 24 32 13 17 1032.8 1032.8 0.0
22/08:00am 5.0 -0.7 3.0 87 0.8 NNW 22 30 12 16 1033.0 1033.0 0.0
22/07:30am 4.7 -0.7 2.7 87 0.8 NNW 20 28 11 15 1032.8 1032.8 0.0
22/07:00am 5.0 -0.3 3.2 88 0.7 NNW 20 30 11 16 1032.7 1032.7 0.0
22/06:30am 5.3 0.0 3.2 86 0.9 NNW 20 30 11 16 1032.9 1032.9 0.0
22/06:00am 5.6 0.4 3.3 85 0.9 NW 20 26 11 14 1032.9 1032.9 0.0
22/05:30am 5.4 0.8 3.6 88 0.8 NW 17 24 9 13 1033.0 1033.0 0.0
22/05:00am 5.6 0.9 3.4 86 0.9 NNW 17 28 9 15 1032.9 1032.9 0.0
22/04:30am 5.5 1.3 3.7 88 0.8 NNW 15 24 8 13 1032.9 1032.9 0.0
22/04:00am 5.7 2.3 3.9 88 0.8 NNW 11 20 6 11 1033.1 1033.1 0.0
22/03:30am 5.6 1.8 3.9 89 0.7 NNW 13 19 7 10 1033.2 1033.2 0.0
22/03:00am 4.7 1.6 3.8 94 0.4 NW 9 15 5 8 1033.4 1033.4 0.0
22/02:30am 4.0 0.4 3.0 93 0.4 NNW 11 13 6 7 1033.6 1033.6 0.0
22/02:00am 4.3 1.1 3.1 92 0.5 WNW 9 11 5 6 1033.6 1033.6 0.0
22/01:30am 4.6 0.7 3.6 93 0.4 NNW 13 19 7 10 1033.5 1033.5 0.0
22/01:00am 4.6 1.9 3.6 93 0.4 NW 7 11 4 6 1033.7 1033.7 0.0
22/12:30am 4.7 1.6 3.5 92 0.5 WNW 9 13 5 7 1033.9 1033.9 0.0
22/12:00am 5.0 1.9 3.7 91 0.5 WNW 9 15 5 8 1033.9 1033.9 0.0
 
Date/Time
EST
Temp
°C
App
Temp
°C
Dew
Point
°C
Rel
Hum
%
Delta-T
°C
Wind Press
QNH
hPa
Press
MSL
hPa
Rain since
9am
mm
Dir  Spd
km/h
Gust
km/h
Spd
kts
Gust
kts
21/11:30pm 5.3 1.9 3.8 90 0.6 NW 11 17 6 9 1034.0 1034.0 0.0
21/11:00pm 5.8 2.8 4.1 89 0.7 NNW 9 15 5 8 1034.0 1034.0 0.0
21/10:30pm 5.9 2.6 4.4 90 0.6 NW 11 17 6 9 1034.3 1034.3 0.0
21/10:00pm 5.9 2.2 4.5 91 0.6 NW 13 19 7 10 1034.4 1034.4 0.0
21/09:30pm 5.6 2.6 4.2 91 0.6 NW 9 11 5 6 1034.4 1034.4 0.0
21/09:00pm 5.6 3.0 4.1 90 0.6 NW 7 9 4 5 1034.4 1034.4 0.0
21/08:30pm 6.2 3.7 4.5 89 0.7 WNW 7 11 4 6 1034.4 1034.4 0.0
21/08:00pm 6.3 3.8 4.6 89 0.7 NW 7 11 4 6 1034.3 1034.3 0.0
21/07:30pm 6.5 4.0 4.7 88 0.8 WNW 7 11 4 6 1034.3 1034.3 0.0
21/07:00pm 7.0 4.1 4.8 86 1.0 W 9 11 5 6 1034.3 1034.3 0.0
21/06:30pm 7.1 4.6 4.9 86 1.0 NW 7 9 4 5 1034.2 1034.2 0.0
21/06:00pm 7.4 4.6 5.0 85 1.0 W 9 15 5 8 1034.0 1034.0 0.0
21/05:30pm 8.2 5.1 5.5 83 1.2 WSW 11 17 6 9 1033.8 1033.8 0.0
21/05:00pm 9.0 6.3 5.7 80 1.5 WSW 9 11 5 6 1033.6 1033.6 0.0
21/04:30pm 10.1 8.2 4.9 70 2.3 NE 4 7 2 4 1033.7 1033.7 0.0
21/04:00pm 10.8 9.2 4.7 66 2.7 N 2 7 1 4 1033.8 1033.8 0.0
21/03:30pm 12.2 10.3 5.1 62 3.3 NE 4 11 2 6 1034.0 1034.0 0.0
21/03:00pm 12.6 10.1 4.8 59 3.6 N 7 11 4 6 1034.0 1034.0 0.0
21/02:30pm 12.4 9.5 4.9 60 3.5 NNW 9 13 5 7 1034.1 1034.1 0.0
21/02:00pm 12.5 9.4 5.4 62 3.3 NNW 11 17 6 9 1034.3 1034.3 0.0
21/01:30pm 10.7 6.7 4.8 67 2.7 NNW 15 19 8 10 1034.6 1034.6 0.0
21/01:00pm 11.8 8.2 5.0 63 3.1 N 13 20 7 11 1034.9 1034.9 0.0
21/12:30pm 10.9 6.5 5.0 67 2.7 NNW 17 22 9 12 1035.2 1035.3 0.0
21/12:00pm 10.3 5.9 4.9 69 2.4 NNW 17 22 9 12 1035.6 1035.7 0.0
21/11:30am 10.1 5.4 5.1 71 2.3 NNW 19 24 10 13 1036.0 1036.1 0.0
21/11:00am 9.9 5.7 5.5 74 2.0 NNW 17 24 9 13 1036.2 1036.3 0.0
21/10:30am 9.1 4.1 4.7 74 2.0 NNW 20 28 11 15 1036.4 1036.5 0.0
21/10:00am 7.9 3.5 4.7 80 1.4 NNW 17 24 9 13 1036.5 1036.6 0.0
21/09:30am 6.6 3.7 4.6 87 0.9 NNW 9 15 5 8 1036.8 1036.9 0.0

Latest Capital City Observations: Canberra | Sydney | Melbourne | Brisbane | Adelaide | Perth | Hobart | Darwin

Other formats

Comma delimited format used in spreadsheet applications
http://www.bom.gov.au/fwo/IDT60901/IDT60901.94970.axf

JavaScript Object Notation format (JSON) in row-major order
http://www.bom.gov.au/fwo/IDT60901/IDT60901.94970.json

Data quality

Most of these data are generated automatically and are frequently updated. Quality checks on data are not normally performed. It is possible for incorrect values to appear. Refer to information at About Latest Weather Observations and please check the disclaimer before using these data.